sensor_id;sensor_type;location;lat;lon;timestamp;pressure;altitude;pressure_sealevel;temperature;humidity
27712;BME280;2377;51.734;8.950;2023-03-14T00:02:12;95462.53;;;10.89;86.42
27712;BME280;2377;51.734;8.950;2023-03-14T00:04:40;95438.84;;;10.83;86.16
27712;BME280;2377;51.734;8.950;2023-03-14T00:07:10;95453.44;;;10.83;86.03
27712;BME280;2377;51.734;8.950;2023-03-14T00:09:37;95453.91;;;10.85;86.55
27712;BME280;2377;51.734;8.950;2023-03-14T00:12:04;95475.94;;;10.81;86.38
27712;BME280;2377;51.734;8.950;2023-03-14T00:14:33;95488.97;;;10.79;86.39
27712;BME280;2377;51.734;8.950;2023-03-14T00:17:00;95492.50;;;10.83;86.38
27712;BME280;2377;51.734;8.950;2023-03-14T00:19:27;95483.03;;;10.84;86.57
27712;BME280;2377;51.734;8.950;2023-03-14T00:21:55;95486.59;;;10.88;86.37
27712;BME280;2377;51.734;8.950;2023-03-14T00:24:22;95487.63;;;10.87;86.27
27712;BME280;2377;51.734;8.950;2023-03-14T00:26:49;95478.16;;;10.87;86.34
27712;BME280;2377;51.734;8.950;2023-03-14T00:29:16;95488.59;;;10.91;86.40
27712;BME280;2377;51.734;8.950;2023-03-14T00:31:43;95504.22;;;10.89;86.78
27712;BME280;2377;51.734;8.950;2023-03-14T00:34:10;95503.16;;;10.90;86.38
27712;BME280;2377;51.734;8.950;2023-03-14T00:36:37;95505.72;;;10.90;86.12
27712;BME280;2377;51.734;8.950;2023-03-14T00:39:06;95502.97;;;10.87;86.26
27712;BME280;2377;51.734;8.950;2023-03-14T00:41:33;95497.63;;;10.83;86.55
27712;BME280;2377;51.734;8.950;2023-03-14T00:44:00;95474.84;;;10.87;86.42
27712;BME280;2377;51.734;8.950;2023-03-14T00:46:30;95473.94;;;10.77;86.14
27712;BME280;2377;51.734;8.950;2023-03-14T00:48:57;95463.41;;;10.79;86.20
27712;BME280;2377;51.734;8.950;2023-03-14T00:51:24;95442.72;;;10.81;86.02
27712;BME280;2377;51.734;8.950;2023-03-14T00:53:51;95442.28;;;10.73;86.45
27712;BME280;2377;51.734;8.950;2023-03-14T00:56:20;95438.22;;;10.72;86.32
27712;BME280;2377;51.734;8.950;2023-03-14T00:58:47;95442.53;;;10.72;86.70
27712;BME280;2377;51.734;8.950;2023-03-14T01:01:16;95464.88;;;10.61;86.42
27712;BME280;2377;51.734;8.950;2023-03-14T01:03:44;95468.38;;;10.70;86.61
27712;BME280;2377;51.734;8.950;2023-03-14T01:06:14;95481.66;;;10.72;86.39
27712;BME280;2377;51.734;8.950;2023-03-14T01:08:42;95489.34;;;10.67;86.69
27712;BME280;2377;51.734;8.950;2023-03-14T01:11:12;95492.94;;;10.66;86.97
27712;BME280;2377;51.734;8.950;2023-03-14T01:13:41;95488.31;;;10.68;86.94
27712;BME280;2377;51.734;8.950;2023-03-14T01:16:10;95475.53;;;10.68;86.88
27712;BME280;2377;51.734;8.950;2023-03-14T01:18:39;95488.25;;;10.73;87.02
27712;BME280;2377;51.734;8.950;2023-03-14T01:21:12;95472.94;;;10.73;87.08
27712;BME280;2377;51.734;8.950;2023-03-14T01:23:40;95468.59;;;10.74;86.94
27712;BME280;2377;51.734;8.950;2023-03-14T01:26:09;95473.50;;;10.65;86.83
27712;BME280;2377;51.734;8.950;2023-03-14T01:28:37;95457.06;;;10.76;86.89
27712;BME280;2377;51.734;8.950;2023-03-14T01:31:08;95428.47;;;10.74;86.78
27712;BME280;2377;51.734;8.950;2023-03-14T01:33:36;95406.50;;;10.73;86.60
27712;BME280;2377;51.734;8.950;2023-03-14T01:36:04;95404.50;;;10.70;86.37
27712;BME280;2377;51.734;8.950;2023-03-14T01:38:34;95406.84;;;10.67;85.86
27712;BME280;2377;51.734;8.950;2023-03-14T01:41:02;95403.25;;;10.68;86.01
27712;BME280;2377;51.734;8.950;2023-03-14T01:43:32;95404.78;;;10.69;85.86
27712;BME280;2377;51.734;8.950;2023-03-14T01:46:25;95423.16;;;10.71;85.84
27712;BME280;2377;51.734;8.950;2023-03-14T01:49:01;95420.59;;;10.71;85.75
27712;BME280;2377;51.734;8.950;2023-03-14T01:51:36;95422.09;;;10.72;85.72
27712;BME280;2377;51.734;8.950;2023-03-14T01:54:12;95414.94;;;10.74;85.43
27712;BME280;2377;51.734;8.950;2023-03-14T01:56:46;95411.06;;;10.76;85.12
27712;BME280;2377;51.734;8.950;2023-03-14T01:59:15;95398.28;;;10.76;85.06
27712;BME280;2377;51.734;8.950;2023-03-14T02:01:46;95412.13;;;10.75;84.97
27712;BME280;2377;51.734;8.950;2023-03-14T02:04:16;95406.50;;;10.73;84.95
27712;BME280;2377;51.734;8.950;2023-03-14T02:06:54;95400.84;;;10.76;84.52
27712;BME280;2377;51.734;8.950;2023-03-14T02:09:23;95381.16;;;10.77;84.70
27712;BME280;2377;51.734;8.950;2023-03-14T02:11:51;95385.53;;;10.76;84.69
27712;BME280;2377;51.734;8.950;2023-03-14T02:14:29;95390.63;;;10.76;84.66
27712;BME280;2377;51.734;8.950;2023-03-14T02:16:58;95390.63;;;10.76;84.37
27712;BME280;2377;51.734;8.950;2023-03-14T02:19:50;95392.69;;;10.74;84.69
27712;BME280;2377;51.734;8.950;2023-03-14T02:22:22;95385.31;;;10.73;84.38
27712;BME280;2377;51.734;8.950;2023-03-14T02:24:59;95380.41;;;10.76;84.75
27712;BME280;2377;51.734;8.950;2023-03-14T02:27:31;95377.44;;;10.69;84.87
27712;BME280;2377;51.734;8.950;2023-03-14T02:30:02;95379.78;;;10.66;84.47
27712;BME280;2377;51.734;8.950;2023-03-14T02:32:34;95374.34;;;10.72;84.61
27712;BME280;2377;51.734;8.950;2023-03-14T02:35:08;95384.00;;;10.75;84.41
27712;BME280;2377;51.734;8.950;2023-03-14T02:37:42;95386.84;;;10.74;84.60
27712;BME280;2377;51.734;8.950;2023-03-14T02:40:12;95390.97;;;10.70;84.52
27712;BME280;2377;51.734;8.950;2023-03-14T02:42:40;95383.91;;;10.62;84.40
27712;BME280;2377;51.734;8.950;2023-03-14T02:45:38;95381.28;;;10.67;84.04
27712;BME280;2377;51.734;8.950;2023-03-14T02:48:13;95376.19;;;10.67;84.55
27712;BME280;2377;51.734;8.950;2023-03-14T02:50:41;95389.22;;;10.65;84.09
27712;BME280;2377;51.734;8.950;2023-03-14T02:53:09;95381.53;;;10.70;84.28
27712;BME280;2377;51.734;8.950;2023-03-14T02:55:36;95378.19;;;10.70;84.29
27712;BME280;2377;51.734;8.950;2023-03-14T02:58:04;95376.75;;;10.64;84.19
27712;BME280;2377;51.734;8.950;2023-03-14T03:00:31;95367.00;;;10.66;84.23
27712;BME280;2377;51.734;8.950;2023-03-14T03:02:59;95385.59;;;10.71;84.33
27712;BME280;2377;51.734;8.950;2023-03-14T03:05:26;95381.28;;;10.67;86.83
27712;BME280;2377;51.734;8.950;2023-03-14T03:07:53;95388.78;;;10.58;88.31
27712;BME280;2377;51.734;8.950;2023-03-14T03:10:22;95421.66;;;10.41;90.15
27712;BME280;2377;51.734;8.950;2023-03-14T03:12:50;95435.50;;;10.34;90.68
27712;BME280;2377;51.734;8.950;2023-03-14T03:15:18;95425.00;;;10.07;91.31
27712;BME280;2377;51.734;8.950;2023-03-14T03:17:45;95422.25;;;9.98;91.79
27712;BME280;2377;51.734;8.950;2023-03-14T03:20:12;95403.75;;;9.82;92.61
27712;BME280;2377;51.734;8.950;2023-03-14T03:22:39;95408.97;;;9.67;93.19
27712;BME280;2377;51.734;8.950;2023-03-14T03:25:08;95419.19;;;9.62;93.40
27712;BME280;2377;51.734;8.950;2023-03-14T03:27:37;95402.38;;;9.61;93.72
27712;BME280;2377;51.734;8.950;2023-03-14T03:30:07;95394.00;;;9.55;94.39
27712;BME280;2377;51.734;8.950;2023-03-14T03:32:36;95395.25;;;9.58;93.78
27712;BME280;2377;51.734;8.950;2023-03-14T03:35:04;95380.00;;;9.52;93.38
27712;BME280;2377;51.734;8.950;2023-03-14T03:37:32;95386.38;;;9.50;93.32
27712;BME280;2377;51.734;8.950;2023-03-14T03:40:00;95380.50;;;9.49;92.26
27712;BME280;2377;51.734;8.950;2023-03-14T03:42:29;95386.41;;;9.45;92.60
27712;BME280;2377;51.734;8.950;2023-03-14T03:44:56;95391.78;;;9.43;92.65
27712;BME280;2377;51.734;8.950;2023-03-14T03:47:23;95379.53;;;9.45;92.73
27712;BME280;2377;51.734;8.950;2023-03-14T03:49:51;95384.16;;;9.38;92.36
27712;BME280;2377;51.734;8.950;2023-03-14T03:52:19;95390.00;;;9.44;92.04
27712;BME280;2377;51.734;8.950;2023-03-14T03:54:46;95394.84;;;9.45;92.60
27712;BME280;2377;51.734;8.950;2023-03-14T03:57:13;95378.00;;;9.44;92.53
27712;BME280;2377;51.734;8.950;2023-03-14T03:59:40;95380.50;;;9.49;91.80
27712;BME280;2377;51.734;8.950;2023-03-14T04:02:07;95383.81;;;9.50;92.24
27712;BME280;2377;51.734;8.950;2023-03-14T04:04:34;95383.56;;;9.51;91.82
27712;BME280;2377;51.734;8.950;2023-03-14T04:07:03;95380.50;;;9.49;92.01
27712;BME280;2377;51.734;8.950;2023-03-14T04:09:30;95388.16;;;9.49;91.87
27712;BME280;2377;51.734;8.950;2023-03-14T04:11:57;95391.25;;;9.46;92.28
27712;BME280;2377;51.734;8.950;2023-03-14T04:14:24;95394.06;;;9.45;92.56
27712;BME280;2377;51.734;8.950;2023-03-14T04:16:51;95385.72;;;9.34;92.49
27712;BME280;2377;51.734;8.950;2023-03-14T04:19:19;95378.28;;;9.38;92.75
27712;BME280;2377;51.734;8.950;2023-03-14T04:21:46;95372.69;;;9.41;93.28
27712;BME280;2377;51.734;8.950;2023-03-14T04:24:18;95370.44;;;9.34;93.46
27712;BME280;2377;51.734;8.950;2023-03-14T04:26:45;95367.59;;;9.36;93.10
27712;BME280;2377;51.734;8.950;2023-03-14T04:29:12;95362.00;;;9.39;93.23
27712;BME280;2377;51.734;8.950;2023-03-14T04:31:39;95356.41;;;9.37;93.52
27712;BME280;2377;51.734;8.950;2023-03-14T04:34:06;95362.78;;;9.34;94.19
27712;BME280;2377;51.734;8.950;2023-03-14T04:36:33;95365.28;;;9.39;93.89
27712;BME280;2377;51.734;8.950;2023-03-14T04:39:01;95351.00;;;9.38;94.21
27712;BME280;2377;51.734;8.950;2023-03-14T04:41:31;95345.44;;;9.36;93.97
27712;BME280;2377;51.734;8.950;2023-03-14T04:43:59;95338.81;;;9.35;94.19
27712;BME280;2377;51.734;8.950;2023-03-14T04:46:26;95342.59;;;9.38;93.95
27712;BME280;2377;51.734;8.950;2023-03-14T04:48:53;95343.91;;;9.35;94.25
27712;BME280;2377;51.734;8.950;2023-03-14T04:51:22;95338.25;;;9.38;94.36
27712;BME280;2377;51.734;8.950;2023-03-14T04:53:53;95334.44;;;9.41;93.80
27712;BME280;2377;51.734;8.950;2023-03-14T04:56:21;95334.44;;;9.41;93.99
27712;BME280;2377;51.734;8.950;2023-03-14T04:58:49;95345.44;;;9.36;93.85
27712;BME280;2377;51.734;8.950;2023-03-14T05:01:16;95338.84;;;9.30;93.57
27712;BME280;2377;51.734;8.950;2023-03-14T05:03:43;95333.25;;;9.28;94.30
27712;BME280;2377;51.734;8.950;2023-03-14T05:06:10;95330.19;;;9.26;93.92
27712;BME280;2377;51.734;8.950;2023-03-14T05:08:37;95328.16;;;9.28;94.22
27712;BME280;2377;51.734;8.950;2023-03-14T05:11:05;95328.69;;;9.25;94.68
27712;BME280;2377;51.734;8.950;2023-03-14T05:13:32;95327.16;;;9.24;94.38
27712;BME280;2377;51.734;8.950;2023-03-14T05:16:10;95333.31;;;9.18;94.26
27712;BME280;2377;51.734;8.950;2023-03-14T05:18:37;95321.56;;;9.22;95.09
27712;BME280;2377;51.734;8.950;2023-03-14T05:21:05;95315.66;;;9.26;95.07
27712;BME280;2377;51.734;8.950;2023-03-14T05:23:32;95308.56;;;9.23;94.40
27712;BME280;2377;51.734;8.950;2023-03-14T05:25:59;95315.91;;;9.30;94.30
27712;BME280;2377;51.734;8.950;2023-03-14T05:28:27;95303.16;;;9.30;94.22
27712;BME280;2377;51.734;8.950;2023-03-14T05:30:54;95306.25;;;9.27;94.55
27712;BME280;2377;51.734;8.950;2023-03-14T05:33:22;95310.06;;;9.29;94.97
27712;BME280;2377;51.734;8.950;2023-03-14T05:35:49;95307.75;;;9.28;95.13
27712;BME280;2377;51.734;8.950;2023-03-14T05:38:16;95300.63;;;9.30;94.94
27712;BME280;2377;51.734;8.950;2023-03-14T05:40:45;95307.25;;;9.26;95.97
27712;BME280;2377;51.734;8.950;2023-03-14T05:43:12;95305.97;;;9.28;95.57
27712;BME280;2377;51.734;8.950;2023-03-14T05:45:41;95294.47;;;9.36;95.24
27712;BME280;2377;51.734;8.950;2023-03-14T05:48:09;95290.88;;;9.37;95.76
27712;BME280;2377;51.734;8.950;2023-03-14T05:50:37;95293.44;;;9.37;95.93
27712;BME280;2377;51.734;8.950;2023-03-14T05:53:04;95293.91;;;9.39;96.13
27712;BME280;2377;51.734;8.950;2023-03-14T05:55:31;95300.06;;;9.33;97.16
27712;BME280;2377;51.734;8.950;2023-03-14T05:57:58;95287.31;;;9.33;97.29
27712;BME280;2377;51.734;8.950;2023-03-14T06:00:26;95286.38;;;9.29;97.98
27712;BME280;2377;51.734;8.950;2023-03-14T06:02:53;95285.06;;;9.31;97.96
27712;BME280;2377;51.734;8.950;2023-03-14T06:05:20;95283.28;;;9.32;98.42
27712;BME280;2377;51.734;8.950;2023-03-14T06:07:48;95283.28;;;9.32;98.42
27712;BME280;2377;51.734;8.950;2023-03-14T06:10:16;95278.44;;;9.30;99.12
27712;BME280;2377;51.734;8.950;2023-03-14T06:12:43;95279.69;;;9.33;98.65
27712;BME280;2377;51.734;8.950;2023-03-14T06:15:10;95276.63;;;9.31;99.02
27712;BME280;2377;51.734;8.950;2023-03-14T06:17:38;95280.69;;;9.37;98.39
27712;BME280;2377;51.734;8.950;2023-03-14T06:20:07;95278.09;;;9.42;98.29
27712;BME280;2377;51.734;8.950;2023-03-14T06:22:34;95267.88;;;9.42;98.45
27712;BME280;2377;51.734;8.950;2023-03-14T06:25:03;95269.94;;;9.40;98.55
27712;BME280;2377;51.734;8.950;2023-03-14T06:27:30;95269.38;;;9.48;98.15
27712;BME280;2377;51.734;8.950;2023-03-14T06:29:58;95272.19;;;9.47;98.07
27712;BME280;2377;51.734;8.950;2023-03-14T06:32:30;95264.81;;;9.45;98.02
27712;BME280;2377;51.734;8.950;2023-03-14T06:34:57;95274.19;;;9.50;98.39
27712;BME280;2377;51.734;8.950;2023-03-14T06:37:26;95274.97;;;9.50;98.08
27712;BME280;2377;51.734;8.950;2023-03-14T06:39:54;95282.88;;;9.49;98.36
27712;BME280;2377;51.734;8.950;2023-03-14T06:42:23;95278.53;;;9.49;98.04
27712;BME280;2377;51.734;8.950;2023-03-14T06:44:50;95273.94;;;9.51;97.83
27712;BME280;2377;51.734;8.950;2023-03-14T06:47:17;95272.31;;;9.61;97.79
27712;BME280;2377;51.734;8.950;2023-03-14T06:49:44;95275.63;;;9.61;97.73
27712;BME280;2377;51.734;8.950;2023-03-14T06:52:11;95270.75;;;9.65;97.36
27712;BME280;2377;51.734;8.950;2023-03-14T06:54:38;95278.94;;;9.62;97.46
27712;BME280;2377;51.734;8.950;2023-03-14T06:57:05;95270.31;;;9.58;97.72
27712;BME280;2377;51.734;8.950;2023-03-14T06:59:37;95274.63;;;9.62;97.10
27712;BME280;2377;51.734;8.950;2023-03-14T07:02:04;95273.81;;;9.67;97.39
27712;BME280;2377;51.734;8.950;2023-03-14T07:04:31;95273.53;;;9.68;97.35
27712;BME280;2377;51.734;8.950;2023-03-14T07:06:58;95268.38;;;9.73;97.06
27712;BME280;2377;51.734;8.950;2023-03-14T07:09:25;95269.66;;;9.76;96.69
27712;BME280;2377;51.734;8.950;2023-03-14T07:11:52;95266.59;;;9.74;96.85
27712;BME280;2377;51.734;8.950;2023-03-14T07:14:19;95269.16;;;9.74;95.94
27712;BME280;2377;51.734;8.950;2023-03-14T07:16:47;95271.97;;;9.72;95.50
27712;BME280;2377;51.734;8.950;2023-03-14T07:19:14;95264.13;;;9.64;95.36
27712;BME280;2377;51.734;8.950;2023-03-14T07:21:42;95268.22;;;9.65;95.05
27712;BME280;2377;51.734;8.950;2023-03-14T07:24:09;95259.53;;;9.66;94.80
27712;BME280;2377;51.734;8.950;2023-03-14T07:26:36;95255.84;;;9.77;95.03
27712;BME280;2377;51.734;8.950;2023-03-14T07:29:03;95251.56;;;9.72;94.55
27712;BME280;2377;51.734;8.950;2023-03-14T07:31:30;95274.69;;;9.81;95.04
27712;BME280;2377;51.734;8.950;2023-03-14T07:33:59;95266.75;;;9.83;95.09
27712;BME280;2377;51.734;8.950;2023-03-14T07:36:26;95265.34;;;9.71;95.32
27712;BME280;2377;51.734;8.950;2023-03-14T07:38:53;95266.28;;;9.81;95.29
27712;BME280;2377;51.734;8.950;2023-03-14T07:41:21;95275.44;;;9.82;94.97
27712;BME280;2377;51.734;8.950;2023-03-14T07:43:49;95269.66;;;9.76;95.24
27712;BME280;2377;51.734;8.950;2023-03-14T07:46:16;95281.59;;;9.81;95.13
27712;BME280;2377;51.734;8.950;2023-03-14T07:48:44;95280.72;;;9.90;94.98
27712;BME280;2377;51.734;8.950;2023-03-14T07:51:12;95283.66;;;9.79;95.58
27712;BME280;2377;51.734;8.950;2023-03-14T07:53:39;95286.41;;;9.82;95.24
27712;BME280;2377;51.734;8.950;2023-03-14T07:56:09;95283.84;;;9.82;94.99
27712;BME280;2377;51.734;8.950;2023-03-14T07:58:36;95281.25;;;9.87;95.01
27712;BME280;2377;51.734;8.950;2023-03-14T08:01:03;95279.69;;;9.91;95.37
27712;BME280;2377;51.734;8.950;2023-03-14T08:03:30;95284.47;;;9.98;95.48
27712;BME280;2377;51.734;8.950;2023-03-14T08:05:58;95283.72;;;9.98;95.00
27712;BME280;2377;51.734;8.950;2023-03-14T08:08:26;95288.88;;;9.92;94.70
27712;BME280;2377;51.734;8.950;2023-03-14T08:10:53;95284.25;;;9.94;94.77
27712;BME280;2377;51.734;8.950;2023-03-14T08:13:21;95290.00;;;10.05;94.98
27712;BME280;2377;51.734;8.950;2023-03-14T08:15:49;95284.47;;;9.98;95.93
27712;BME280;2377;51.734;8.950;2023-03-14T08:18:16;95286.75;;;10.00;96.80
27712;BME280;2377;51.734;8.950;2023-03-14T08:20:43;95282.69;;;9.99;96.39
27712;BME280;2377;51.734;8.950;2023-03-14T08:23:11;95282.19;;;9.97;96.39
27712;BME280;2377;51.734;8.950;2023-03-14T08:25:39;95289.75;;;10.07;96.40
27712;BME280;2377;51.734;8.950;2023-03-14T08:28:07;95279.56;;;10.02;96.01
27712;BME280;2377;51.734;8.950;2023-03-14T08:30:34;95287.69;;;10.09;96.50
27712;BME280;2377;51.734;8.950;2023-03-14T08:33:02;95287.16;;;10.12;96.48
27712;BME280;2377;51.734;8.950;2023-03-14T08:35:29;95299.34;;;10.15;96.49
27712;BME280;2377;51.734;8.950;2023-03-14T08:37:56;95296.63;;;10.06;96.93
27712;BME280;2377;51.734;8.950;2023-03-14T08:40:23;95298.66;;;10.09;97.06
27712;BME280;2377;51.734;8.950;2023-03-14T08:42:51;95290.94;;;10.14;96.81
27712;BME280;2377;51.734;8.950;2023-03-14T08:45:19;95300.88;;;10.16;96.53
27712;BME280;2377;51.734;8.950;2023-03-14T08:47:46;95305.66;;;10.23;96.63
27712;BME280;2377;51.734;8.950;2023-03-14T08:50:13;95308.44;;;10.26;96.33
27712;BME280;2377;51.734;8.950;2023-03-14T08:52:40;95309.00;;;10.18;95.93
27712;BME280;2377;51.734;8.950;2023-03-14T08:55:09;95312.94;;;10.10;95.83
27712;BME280;2377;51.734;8.950;2023-03-14T08:57:36;95302.06;;;10.24;96.06
27712;BME280;2377;51.734;8.950;2023-03-14T09:00:07;95317.59;;;10.27;96.03
27712;BME280;2377;51.734;8.950;2023-03-14T09:02:38;95315.56;;;10.29;96.40
27712;BME280;2377;51.734;8.950;2023-03-14T09:05:06;95317.16;;;10.20;96.08
27712;BME280;2377;51.734;8.950;2023-03-14T09:07:33;95314.56;;;10.25;95.72
27712;BME280;2377;51.734;8.950;2023-03-14T09:10:00;95316.84;;;10.27;95.76
27712;BME280;2377;51.734;8.950;2023-03-14T09:12:27;95309.44;;;10.25;96.02
27712;BME280;2377;51.734;8.950;2023-03-14T09:14:54;95313.66;;;10.16;96.41
27712;BME280;2377;51.734;8.950;2023-03-14T09:17:23;95319.72;;;10.20;96.80
27712;BME280;2377;51.734;8.950;2023-03-14T09:19:50;95312.28;;;10.24;96.72
27712;BME280;2377;51.734;8.950;2023-03-14T09:22:17;95317.59;;;10.27;96.48
27712;BME280;2377;51.734;8.950;2023-03-14T09:24:44;95317.59;;;10.32;96.32
27712;BME280;2377;51.734;8.950;2023-03-14T09:27:11;95326.69;;;10.39;95.96
27712;BME280;2377;51.734;8.950;2023-03-14T09:29:38;95318.84;;;10.35;96.53
27712;BME280;2377;51.734;8.950;2023-03-14T09:32:05;95321.66;;;10.33;96.35
27712;BME280;2377;51.734;8.950;2023-03-14T09:34:34;95321.34;;;10.40;96.10
27712;BME280;2377;51.734;8.950;2023-03-14T09:37:01;95327.75;;;10.38;96.10
27712;BME280;2377;51.734;8.950;2023-03-14T09:39:28;95327.31;;;10.30;96.23
27712;BME280;2377;51.734;8.950;2023-03-14T09:41:58;95321.34;;;10.40;95.97
27712;BME280;2377;51.734;8.950;2023-03-14T09:44:33;95325.38;;;10.41;96.25
27712;BME280;2377;51.734;8.950;2023-03-14T09:47:07;95324.38;;;10.42;95.69
27712;BME280;2377;51.734;8.950;2023-03-14T09:49:40;95313.94;;;10.39;95.39
27712;BME280;2377;51.734;8.950;2023-03-14T09:52:14;95314.19;;;10.37;95.78
27712;BME280;2377;51.734;8.950;2023-03-14T09:54:46;95317.97;;;10.45;96.17
27712;BME280;2377;51.734;8.950;2023-03-14T09:57:18;95315.06;;;10.51;96.30
27712;BME280;2377;51.734;8.950;2023-03-14T09:59:47;95320.44;;;10.50;95.47
27712;BME280;2377;51.734;8.950;2023-03-14T10:02:27;95318.25;;;10.62;96.28
27712;BME280;2377;51.734;8.950;2023-03-14T10:04:56;95303.50;;;10.59;96.86
27712;BME280;2377;51.734;8.950;2023-03-14T10:07:29;95309.44;;;10.73;96.25
27712;BME280;2377;51.734;8.950;2023-03-14T10:09:58;95311.16;;;10.78;96.78
27712;BME280;2377;51.734;8.950;2023-03-14T10:12:32;95320.22;;;10.70;95.66
27712;BME280;2377;51.734;8.950;2023-03-14T10:15:06;95317.09;;;10.73;95.42
27712;BME280;2377;51.734;8.950;2023-03-14T10:17:39;95327.25;;;10.78;95.07
27712;BME280;2377;51.734;8.950;2023-03-14T10:20:29;95320.47;;;10.69;94.09
27712;BME280;2377;51.734;8.950;2023-03-14T10:23:00;95322.69;;;10.75;95.29
27712;BME280;2377;51.734;8.950;2023-03-14T10:25:29;95320.84;;;10.81;96.22
27712;BME280;2377;51.734;8.950;2023-03-14T10:27:58;95322.84;;;10.84;95.18
27712;BME280;2377;51.734;8.950;2023-03-14T10:30:37;95325.81;;;10.72;97.15
27712;BME280;2377;51.734;8.950;2023-03-14T10:33:12;95322.63;;;10.81;98.12
27712;BME280;2377;51.734;8.950;2023-03-14T10:35:53;95325.31;;;10.70;99.04
27712;BME280;2377;51.734;8.950;2023-03-14T10:38:25;95325.31;;;10.70;100.00
27712;BME280;2377;51.734;8.950;2023-03-14T10:40:55;95331.19;;;10.71;99.84
27712;BME280;2377;51.734;8.950;2023-03-14T10:43:26;95327.06;;;10.75;100.00
27712;BME280;2377;51.734;8.950;2023-03-14T10:45:56;95347.06;;;10.68;100.00
27712;BME280;2377;51.734;8.950;2023-03-14T10:48:31;95347.25;;;10.71;100.00
27712;BME280;2377;51.734;8.950;2023-03-14T10:51:06;95353.75;;;10.64;100.00
27712;BME280;2377;51.734;8.950;2023-03-14T10:53:41;95352.78;;;10.60;100.00
27712;BME280;2377;51.734;8.950;2023-03-14T10:56:12;95356.31;;;10.64;100.00
27712;BME280;2377;51.734;8.950;2023-03-14T10:58:43;95352.44;;;10.66;100.00
27712;BME280;2377;51.734;8.950;2023-03-14T11:01:36;95360.81;;;10.48;100.00
27712;BME280;2377;51.734;8.950;2023-03-14T11:04:18;95361.44;;;10.40;100.00
27712;BME280;2377;51.734;8.950;2023-03-14T11:06:58;95363.06;;;10.30;100.00
27712;BME280;2377;51.734;8.950;2023-03-14T11:09:38;95383.69;;;10.34;100.00
27712;BME280;2377;51.734;8.950;2023-03-14T11:12:30;95397.63;;;10.12;100.00
27712;BME280;2377;51.734;8.950;2023-03-14T11:15:13;95408.25;;;9.95;100.00
27712;BME280;2377;51.734;8.950;2023-03-14T11:17:52;95411.06;;;9.60;100.00
27712;BME280;2377;51.734;8.950;2023-03-14T11:20:34;95406.19;;;9.63;100.00
27712;BME280;2377;51.734;8.950;2023-03-14T11:23:12;95434.72;;;9.65;100.00
27712;BME280;2377;51.734;8.950;2023-03-14T11:25:54;95441.34;;;9.66;100.00
27712;BME280;2377;51.734;8.950;2023-03-14T11:28:31;95466.72;;;9.42;100.00
27712;BME280;2377;51.734;8.950;2023-03-14T11:31:12;95463.66;;;9.40;100.00
27712;BME280;2377;51.734;8.950;2023-03-14T11:33:51;95492.78;;;9.34;99.63
27712;BME280;2377;51.734;8.950;2023-03-14T11:36:27;95507.34;;;9.18;99.42
27712;BME280;2377;51.734;8.950;2023-03-14T11:38:59;95515.50;;;9.25;99.54
27712;BME280;2377;51.734;8.950;2023-03-14T11:41:31;95517.03;;;9.21;100.00
27712;BME280;2377;51.734;8.950;2023-03-14T11:44:13;95530.81;;;9.20;99.72
27712;BME280;2377;51.734;8.950;2023-03-14T11:46:51;95532.88;;;9.08;100.00
27712;BME280;2377;51.734;8.950;2023-03-14T11:49:31;95542.81;;;9.04;100.00
27712;BME280;2377;51.734;8.950;2023-03-14T11:52:09;95555.06;;;8.92;100.00
27712;BME280;2377;51.734;8.950;2023-03-14T11:54:46;95562.22;;;8.80;100.00
27712;BME280;2377;51.734;8.950;2023-03-14T11:57:18;95569.59;;;8.81;100.00
27712;BME280;2377;51.734;8.950;2023-03-14T11:59:52;95578.00;;;8.66;100.00
27712;BME280;2377;51.734;8.950;2023-03-14T12:02:34;95597.59;;;8.76;100.00
27712;BME280;2377;51.734;8.950;2023-03-14T12:05:45;95607.53;;;8.67;98.54
27712;BME280;2377;51.734;8.950;2023-03-14T12:08:37;95628.66;;;8.58;96.93
27712;BME280;2377;51.734;8.950;2023-03-14T12:11:31;95648.91;;;8.12;91.54
27712;BME280;2377;51.734;8.950;2023-03-14T12:14:00;95655.84;;;7.63;92.68
27712;BME280;2377;51.734;8.950;2023-03-14T12:16:36;95671.41;;;6.97;92.98
27712;BME280;2377;51.734;8.950;2023-03-14T12:19:38;95668.53;;;6.56;92.88
27712;BME280;2377;51.734;8.950;2023-03-14T12:22:23;95693.34;;;6.49;95.24
27712;BME280;2377;51.734;8.950;2023-03-14T12:24:57;95706.84;;;6.55;95.25
27712;BME280;2377;51.734;8.950;2023-03-14T12:28:02;95748.69;;;6.52;94.70
27712;BME280;2377;51.734;8.950;2023-03-14T12:30:34;95758.72;;;6.42;94.66
27712;BME280;2377;51.734;8.950;2023-03-14T12:33:32;95752.22;;;6.07;92.65
27712;BME280;2377;51.734;8.950;2023-03-14T12:36:47;95776.56;;;5.91;93.18
27712;BME280;2377;51.734;8.950;2023-03-14T12:39:36;95765.84;;;5.50;93.62
27712;BME280;2377;51.734;8.950;2023-03-14T12:42:09;95784.50;;;5.61;95.00
27712;BME280;2377;51.734;8.950;2023-03-14T12:45:14;95812.22;;;5.68;94.63
27712;BME280;2377;51.734;8.950;2023-03-14T12:48:09;95828.19;;;5.51;94.59
27712;BME280;2377;51.734;8.950;2023-03-14T12:50:44;95836.09;;;5.55;95.02
27712;BME280;2377;51.734;8.950;2023-03-14T12:53:50;95848.38;;;5.46;93.76
27712;BME280;2377;51.734;8.950;2023-03-14T12:56:39;95864.28;;;5.59;95.25
27712;BME280;2377;51.734;8.950;2023-03-14T12:59:38;95872.00;;;5.52;93.59
27712;BME280;2377;51.734;8.950;2023-03-14T13:02:29;95879.91;;;5.39;91.21
27712;BME280;2377;51.734;8.950;2023-03-14T13:05:12;95902.25;;;5.42;92.06
27712;BME280;2377;51.734;8.950;2023-03-14T13:08:06;95915.53;;;5.49;92.36
27712;BME280;2377;51.734;8.950;2023-03-14T13:10:42;95909.38;;;5.45;91.58
27712;BME280;2377;51.734;8.950;2023-03-14T13:13:19;95915.22;;;5.45;91.63
27712;BME280;2377;51.734;8.950;2023-03-14T13:15:48;95911.56;;;5.53;91.65
27712;BME280;2377;51.734;8.950;2023-03-14T13:18:27;95921.31;;;5.61;91.47
27712;BME280;2377;51.734;8.950;2023-03-14T13:21:02;95925.03;;;5.70;92.74
27712;BME280;2377;51.734;8.950;2023-03-14T13:23:33;95923.38;;;5.64;91.44
27712;BME280;2377;51.734;8.950;2023-03-14T13:26:01;95931.47;;;5.61;91.58
27712;BME280;2377;51.734;8.950;2023-03-14T13:28:30;95946.56;;;5.56;91.68
27712;BME280;2377;51.734;8.950;2023-03-14T13:31:01;95955.34;;;5.65;91.38
27712;BME280;2377;51.734;8.950;2023-03-14T13:33:30;95964.75;;;5.82;92.04
27712;BME280;2377;51.734;8.950;2023-03-14T13:36:00;95968.03;;;5.94;91.78
27712;BME280;2377;51.734;8.950;2023-03-14T13:38:30;95981.59;;;6.00;91.09